createdAt,value
2018-09-10T00:02:36.148Z,99.90
2018-09-10T00:07:39.574Z,99.90
2018-09-10T00:12:42.963Z,99.90
2018-09-10T00:17:46.325Z,99.90
2018-09-10T00:22:49.701Z,99.90
2018-09-10T00:27:53.443Z,99.90
2018-09-10T00:32:56.772Z,99.90
2018-09-10T00:38:01.155Z,99.90
2018-09-10T00:43:04.555Z,99.90
2018-09-10T00:48:08.919Z,99.90
2018-09-10T00:53:12.221Z,99.90
2018-09-10T00:58:15.505Z,99.90
2018-09-10T01:03:18.893Z,99.90
2018-09-10T01:08:23.269Z,99.90
2018-09-10T01:13:26.563Z,99.90
2018-09-10T01:18:29.984Z,99.90
2018-09-10T01:23:33.383Z,99.90
2018-09-10T01:28:36.779Z,99.90
2018-09-10T01:33:45.652Z,99.90
2018-09-10T01:38:48.999Z,99.90
2018-09-10T01:43:52.398Z,99.90
2018-09-10T01:48:55.848Z,99.90
2018-09-10T01:53:59.384Z,99.90
2018-09-10T01:59:02.707Z,99.90
2018-09-10T02:04:06.097Z,99.90
2018-09-10T02:09:09.782Z,99.90
2018-09-10T02:14:13.148Z,99.90
2018-09-10T02:19:16.518Z,99.90
2018-09-10T02:24:19.884Z,99.90
2018-09-10T02:29:23.258Z,99.90
2018-09-10T02:34:26.586Z,99.90
2018-09-10T02:39:29.981Z,99.90
2018-09-10T02:44:33.459Z,99.90
2018-09-10T02:49:37.012Z,99.90
2018-09-10T02:54:40.464Z,99.90
2018-09-10T02:59:44.812Z,99.90
2018-09-10T03:04:48.312Z,99.90
2018-09-10T03:09:51.864Z,99.90
2018-09-10T03:14:55.501Z,99.90
2018-09-10T03:19:59.226Z,99.90
2018-09-10T03:25:03.044Z,99.90
2018-09-10T03:30:06.773Z,99.90
2018-09-10T03:35:10.431Z,99.90
2018-09-10T03:40:14.167Z,99.90
2018-09-10T03:45:17.721Z,99.90
2018-09-10T03:50:21.630Z,99.90
2018-09-10T03:55:25.603Z,99.90
2018-09-10T04:00:29.268Z,99.90
2018-09-10T04:05:33.112Z,99.90
2018-09-10T04:10:36.864Z,99.90
2018-09-10T04:15:40.946Z,99.90
2018-09-10T04:20:44.890Z,99.90
2018-09-10T04:25:49.015Z,99.90
2018-09-10T04:30:53.295Z,99.90
2018-09-10T04:35:57.484Z,99.90
2018-09-10T04:41:01.416Z,99.90
2018-09-10T04:46:05.492Z,99.90
2018-09-10T04:51:09.879Z,99.90
2018-09-10T04:56:13.747Z,99.90
2018-09-10T05:01:17.783Z,99.90
2018-09-10T05:06:21.510Z,99.90
2018-09-10T05:11:25.053Z,99.90
2018-09-10T05:16:28.620Z,99.90
2018-09-10T05:21:32.364Z,99.90
2018-09-10T05:26:39.864Z,99.90
2018-09-10T05:31:43.450Z,99.90
2018-09-10T05:36:47.186Z,99.90
2018-09-10T05:41:50.703Z,99.90
2018-09-10T05:46:54.676Z,99.90
2018-09-10T05:51:58.437Z,99.90
2018-09-10T05:57:02.215Z,99.90
2018-09-10T06:02:05.932Z,99.90
2018-09-10T06:07:09.563Z,99.90
2018-09-10T06:12:13.254Z,99.90
2018-09-10T06:17:17.104Z,99.90
2018-09-10T06:22:21.320Z,99.90
2018-09-10T06:27:25.003Z,99.90
2018-09-10T06:32:28.637Z,99.90
2018-09-10T06:37:32.329Z,99.90
2018-09-10T06:42:35.957Z,99.90
2018-09-10T06:47:39.676Z,99.90
2018-09-10T06:52:43.231Z,99.90
2018-09-10T06:57:46.777Z,99.90
2018-09-10T07:02:50.625Z,99.90
2018-09-10T07:07:54.206Z,99.90
2018-09-10T07:12:57.856Z,99.90
2018-09-10T07:18:01.577Z,99.90
2018-09-10T07:23:05.257Z,99.90
2018-09-10T07:28:08.892Z,99.90
2018-09-10T07:33:12.754Z,99.90
2018-09-10T07:38:16.910Z,99.90
2018-09-10T07:43:20.643Z,99.90
2018-09-10T07:48:24.519Z,99.90
2018-09-10T07:53:28.330Z,99.90
2018-09-10T07:58:32.559Z,99.90
2018-09-10T08:03:36.445Z,99.90
2018-09-10T08:08:43.523Z,99.90
2018-09-10T08:13:47.415Z,99.90
2018-09-10T08:18:54.240Z,99.90
2018-09-10T08:23:58.367Z,99.90
2018-09-10T08:29:02.567Z,99.90
2018-09-10T08:34:06.612Z,99.90
2018-09-10T08:39:10.668Z,99.90
2018-09-10T08:44:18.960Z,99.90
2018-09-10T08:49:40.759Z,99.90
2018-09-10T08:54:44.448Z,99.80
2018-09-10T08:59:47.546Z,99.30
2018-09-10T09:04:50.950Z,98.20
2018-09-10T09:09:54.325Z,97.70
2018-09-10T09:14:57.770Z,96.70
2018-09-10T09:20:01.155Z,97.60
2018-09-10T09:25:04.605Z,96.30
2018-09-10T09:30:08.090Z,96.20
2018-09-10T09:35:11.545Z,95.80
2018-09-10T09:40:20.222Z,95.00
2018-09-10T09:45:28.969Z,94.80
2018-09-10T09:50:32.478Z,94.60
2018-09-10T09:55:36.066Z,94.60
2018-09-10T10:00:44.862Z,94.40
2018-09-10T10:05:48.345Z,94.60
2018-09-10T10:22:07.020Z,93.00
2018-09-10T10:27:10.515Z,92.10
2018-09-10T10:32:15.463Z,91.80
2018-09-10T10:37:19.925Z,91.20
2018-09-10T10:42:23.383Z,91.50
2018-09-10T10:47:26.829Z,90.80
2018-09-10T10:52:33.817Z,90.50
2018-09-10T10:57:38.320Z,90.50
2018-09-10T11:02:42.658Z,90.10
2018-09-10T11:07:46.060Z,90.20
2018-09-10T11:12:49.619Z,89.50
2018-09-10T11:17:53.242Z,90.10
2018-09-10T11:22:56.746Z,87.70
2018-09-10T11:28:01.145Z,87.70
2018-09-10T11:33:04.770Z,82.90
2018-09-10T11:38:08.223Z,81.80
2018-09-10T11:43:11.569Z,79.70
2018-09-10T11:48:15.046Z,79.50
2018-09-10T11:53:18.788Z,78.60
2018-09-10T11:58:22.246Z,77.90
2018-09-10T12:03:25.526Z,78.20
2018-09-10T12:08:28.946Z,75.80
2018-09-10T12:13:32.481Z,72.60
2018-09-10T12:18:36.066Z,72.30
2018-09-10T12:23:39.977Z,71.80
2018-09-10T12:28:43.328Z,69.80
2018-09-10T12:33:46.797Z,68.00
2018-09-10T12:38:50.136Z,68.10
2018-09-10T12:43:53.996Z,67.30
2018-09-10T12:48:57.595Z,66.90
2018-09-10T12:54:01.034Z,65.00
2018-09-10T12:59:04.610Z,64.10
2018-09-10T13:04:08.101Z,63.20
2018-09-10T13:09:11.442Z,64.90
2018-09-10T13:14:15.001Z,65.20
2018-09-10T13:19:18.426Z,66.50
2018-09-10T13:24:21.855Z,64.70
2018-09-10T13:29:26.258Z,64.20
2018-09-10T13:34:29.725Z,62.50
2018-09-10T13:39:33.104Z,63.10
2018-09-10T13:44:36.412Z,62.00
2018-09-10T13:49:39.705Z,61.50
2018-09-10T13:54:43.032Z,60.80
2018-09-10T13:59:46.429Z,59.90
2018-09-10T14:04:49.801Z,59.00
2018-09-10T14:09:54.122Z,60.60
2018-09-10T14:14:57.492Z,60.80
2018-09-10T14:20:00.839Z,61.80
2018-09-10T14:25:04.243Z,63.20
2018-09-10T14:30:07.584Z,63.40
2018-09-10T14:35:10.990Z,64.00
2018-09-10T14:40:14.440Z,64.30
2018-09-10T14:45:17.784Z,64.40
2018-09-10T14:50:22.530Z,65.30
2018-09-10T14:55:26.937Z,64.30
2018-09-10T15:00:31.899Z,65.00
2018-09-10T15:05:38.051Z,65.60
2018-09-10T15:10:42.411Z,64.80
2018-09-10T15:15:49.417Z,65.10
2018-09-10T15:20:53.252Z,65.50
2018-09-10T15:25:59.250Z,64.70
2018-09-10T15:31:03.300Z,65.30
2018-09-10T15:36:07.531Z,65.40
2018-09-10T15:41:11.416Z,65.70
2018-09-10T15:46:15.498Z,66.30
2018-09-10T15:51:21.745Z,66.20
2018-09-10T15:56:27.449Z,67.10
2018-09-10T16:01:34.015Z,68.30
2018-09-10T16:06:43.011Z,68.40
2018-09-10T16:11:47.583Z,69.60
2018-09-10T16:16:52.391Z,70.30
2018-09-10T16:21:56.992Z,71.10
2018-09-10T16:27:01.586Z,71.60
2018-09-10T16:32:06.605Z,72.30
2018-09-10T16:37:10.714Z,73.40
2018-09-10T16:42:18.588Z,73.30
2018-09-10T16:47:34.280Z,73.60
2018-09-10T16:52:38.202Z,74.10
2018-09-10T16:57:43.265Z,75.50
2018-09-10T17:02:47.115Z,76.80
2018-09-10T17:07:52.170Z,77.60
2018-09-10T17:12:56.257Z,77.40
2018-09-10T17:18:01.605Z,78.10
2018-09-10T17:23:05.891Z,78.10
2018-09-10T17:28:14.740Z,78.80
2018-09-10T17:33:20.747Z,79.40
2018-09-10T17:38:24.877Z,79.60
2018-09-10T17:43:29.027Z,80.20
2018-09-10T17:48:32.769Z,80.00
2018-09-10T17:53:36.709Z,82.70
2018-09-10T17:58:40.897Z,83.60
2018-09-10T18:03:45.341Z,84.10
2018-09-10T18:08:49.513Z,84.70
2018-09-10T18:13:55.435Z,85.50
2018-09-10T18:19:00.659Z,87.00
2018-09-10T18:24:05.592Z,87.00
2018-09-10T18:29:09.470Z,88.10
2018-09-10T18:34:16.582Z,89.10
2018-09-10T18:39:27.509Z,90.20
2018-09-10T18:44:38.128Z,90.70
2018-09-10T18:49:42.220Z,91.40
2018-09-10T18:54:46.233Z,91.60
2018-09-10T18:59:51.045Z,91.70
2018-09-10T19:04:54.917Z,91.80
2018-09-10T19:09:59.499Z,92.30
2018-09-10T19:15:03.602Z,92.50
2018-09-10T19:20:09.804Z,92.90
2018-09-10T19:25:13.244Z,93.00
2018-09-10T19:30:16.926Z,93.60
2018-09-10T19:35:26.133Z,93.90
2018-09-10T19:40:37.890Z,94.00
2018-09-10T19:45:43.211Z,94.20
2018-09-10T19:56:00.702Z,94.50
2018-09-10T20:01:06.497Z,94.70
2018-09-10T20:06:25.669Z,94.50
2018-09-10T20:11:30.563Z,95.00
2018-09-10T20:16:40.057Z,95.20
2018-09-10T20:21:44.540Z,95.20
2018-09-10T20:26:51.144Z,95.20
2018-09-10T20:31:54.942Z,95.50
2018-09-10T20:37:00.252Z,95.80
2018-09-10T20:42:04.656Z,95.90
2018-09-10T20:47:08.537Z,96.50
2018-09-10T20:52:12.158Z,96.40
2018-09-10T20:57:15.601Z,96.60
2018-09-10T21:02:18.954Z,96.60
2018-09-10T21:07:23.262Z,97.20
2018-09-10T21:12:26.601Z,97.40
2018-09-10T21:17:29.992Z,97.70
2018-09-10T21:22:33.425Z,98.80
2018-09-10T21:27:36.878Z,98.70
2018-09-10T21:32:40.232Z,99.90
2018-09-10T21:37:43.543Z,99.90
2018-09-10T21:42:46.922Z,99.90
2018-09-10T21:47:50.266Z,99.90
2018-09-10T21:52:53.654Z,99.90
2018-09-10T21:57:57.000Z,99.90
2018-09-10T22:03:00.397Z,99.90
2018-09-10T22:08:03.785Z,99.90
2018-09-10T22:13:07.236Z,99.90
2018-09-10T22:18:11.358Z,99.90
2018-09-10T22:23:14.653Z,99.90
2018-09-10T22:28:18.067Z,99.90
2018-09-10T22:33:21.597Z,99.90
2018-09-10T22:38:24.960Z,99.90
2018-09-10T22:43:28.431Z,99.90
2018-09-10T22:48:31.799Z,99.90
2018-09-10T22:53:35.246Z,99.90
2018-09-10T22:58:39.320Z,99.90
2018-09-10T23:03:42.901Z,99.90
2018-09-10T23:08:46.396Z,99.90
2018-09-10T23:13:49.790Z,99.90
2018-09-10T23:18:53.206Z,99.90
2018-09-10T23:23:56.661Z,99.90
2018-09-10T23:29:00.284Z,99.90
2018-09-10T23:34:03.761Z,99.90
2018-09-10T23:39:08.335Z,99.90
2018-09-10T23:44:12.473Z,99.90
2018-09-10T23:49:15.849Z,99.90
2018-09-10T23:54:19.359Z,99.90
2018-09-10T23:59:22.954Z,99.90
